sensor_id;sensor_type;location;lat;lon;timestamp;P1;durP1;ratioP1;P2;durP2;ratioP2
78197;SDS011;67472;51.554;7.812;2023-10-31T00:02:32;1.05;;;0.95;;
78197;SDS011;67472;51.554;7.812;2023-10-31T00:05:18;2.15;;;1.25;;
78197;SDS011;67472;51.554;7.812;2023-10-31T00:08:05;1.13;;;1.02;;
78197;SDS011;67472;51.554;7.812;2023-10-31T00:10:51;1.13;;;1.05;;
78197;SDS011;67472;51.554;7.812;2023-10-31T00:13:38;1.63;;;1.42;;
78197;SDS011;67472;51.554;7.812;2023-10-31T00:16:25;1.80;;;1.42;;
78197;SDS011;67472;51.554;7.812;2023-10-31T00:19:11;2.05;;;1.30;;
78197;SDS011;67472;51.554;7.812;2023-10-31T00:21:58;2.80;;;1.52;;
78197;SDS011;67472;51.554;7.812;2023-10-31T00:24:45;1.60;;;1.50;;
78197;SDS011;67472;51.554;7.812;2023-10-31T00:27:31;2.30;;;1.35;;
78197;SDS011;67472;51.554;7.812;2023-10-31T00:30:18;1.75;;;1.65;;
78197;SDS011;67472;51.554;7.812;2023-10-31T00:33:06;2.15;;;1.95;;
78197;SDS011;67472;51.554;7.812;2023-10-31T00:35:52;2.30;;;2.10;;
78197;SDS011;67472;51.554;7.812;2023-10-31T00:38:39;2.80;;;2.60;;
78197;SDS011;67472;51.554;7.812;2023-10-31T00:41:25;2.55;;;2.35;;
78197;SDS011;67472;51.554;7.812;2023-10-31T00:44:11;2.50;;;2.30;;
78197;SDS011;67472;51.554;7.812;2023-10-31T00:46:59;2.80;;;2.60;;
78197;SDS011;67472;51.554;7.812;2023-10-31T00:49:47;2.47;;;2.22;;
78197;SDS011;67472;51.554;7.812;2023-10-31T00:52:34;2.90;;;2.70;;
78197;SDS011;67472;51.554;7.812;2023-10-31T00:55:20;2.92;;;2.72;;
78197;SDS011;67472;51.554;7.812;2023-10-31T00:58:07;2.70;;;2.50;;
78197;SDS011;67472;51.554;7.812;2023-10-31T01:00:54;3.05;;;2.63;;
78197;SDS011;67472;51.554;7.812;2023-10-31T01:03:43;4.10;;;2.47;;
78197;SDS011;67472;51.554;7.812;2023-10-31T01:06:29;2.67;;;2.47;;
78197;SDS011;67472;51.554;7.812;2023-10-31T01:09:15;2.40;;;2.30;;
78197;SDS011;67472;51.554;7.812;2023-10-31T01:12:01;2.13;;;2.03;;
78197;SDS011;67472;51.554;7.812;2023-10-31T01:14:48;1.75;;;1.65;;
78197;SDS011;67472;51.554;7.812;2023-10-31T01:17:34;1.95;;;1.70;;
78197;SDS011;67472;51.554;7.812;2023-10-31T01:20:22;2.33;;;2.15;;
78197;SDS011;67472;51.554;7.812;2023-10-31T01:23:09;2.67;;;2.47;;
78197;SDS011;67472;51.554;7.812;2023-10-31T01:25:56;2.30;;;2.20;;
78197;SDS011;67472;51.554;7.812;2023-10-31T01:28:42;2.30;;;2.10;;
78197;SDS011;67472;51.554;7.812;2023-10-31T01:31:28;2.20;;;1.92;;
78197;SDS011;67472;51.554;7.812;2023-10-31T01:34:17;2.30;;;2.10;;
78197;SDS011;67472;51.554;7.812;2023-10-31T01:37:05;1.80;;;1.70;;
78197;SDS011;67472;51.554;7.812;2023-10-31T01:39:51;2.10;;;2.00;;
78197;SDS011;67472;51.554;7.812;2023-10-31T01:42:37;1.45;;;1.38;;
78197;SDS011;67472;51.554;7.812;2023-10-31T01:45:24;1.35;;;1.35;;
78197;SDS011;67472;51.554;7.812;2023-10-31T01:48:10;1.70;;;1.60;;
78197;SDS011;67472;51.554;7.812;2023-10-31T01:50:58;2.08;;;1.58;;
78197;SDS011;67472;51.554;7.812;2023-10-31T01:53:47;1.45;;;1.35;;
78197;SDS011;67472;51.554;7.812;2023-10-31T01:56:33;1.90;;;1.38;;
78197;SDS011;67472;51.554;7.812;2023-10-31T01:59:20;2.95;;;1.30;;
78197;SDS011;67472;51.554;7.812;2023-10-31T02:02:07;1.65;;;1.55;;
78197;SDS011;67472;51.554;7.812;2023-10-31T02:04:55;1.08;;;0.80;;
78197;SDS011;67472;51.554;7.812;2023-10-31T02:07:44;1.95;;;1.27;;
78197;SDS011;67472;51.554;7.812;2023-10-31T02:10:32;1.20;;;1.05;;
78197;SDS011;67472;51.554;7.812;2023-10-31T02:13:19;1.40;;;1.27;;
78197;SDS011;67472;51.554;7.812;2023-10-31T02:16:05;2.38;;;1.40;;
78197;SDS011;67472;51.554;7.812;2023-10-31T02:18:52;1.55;;;1.38;;
78197;SDS011;67472;51.554;7.812;2023-10-31T02:21:40;2.08;;;1.90;;
78197;SDS011;67472;51.554;7.812;2023-10-31T02:24:27;2.95;;;1.83;;
78197;SDS011;67472;51.554;7.812;2023-10-31T02:27:15;2.80;;;2.55;;
78197;SDS011;67472;51.554;7.812;2023-10-31T02:30:02;2.95;;;2.70;;
78197;SDS011;67472;51.554;7.812;2023-10-31T02:32:48;3.47;;;3.17;;
78197;SDS011;67472;51.554;7.812;2023-10-31T02:35:34;4.10;;;3.38;;
78197;SDS011;67472;51.554;7.812;2023-10-31T02:38:23;5.18;;;3.25;;
78197;SDS011;67472;51.554;7.812;2023-10-31T02:41:09;4.45;;;3.33;;
78197;SDS011;67472;51.554;7.812;2023-10-31T02:43:55;3.35;;;3.05;;
78197;SDS011;67472;51.554;7.812;2023-10-31T02:46:42;4.15;;;3.28;;
78197;SDS011;67472;51.554;7.812;2023-10-31T02:49:29;3.67;;;3.38;;
78197;SDS011;67472;51.554;7.812;2023-10-31T02:52:15;4.45;;;3.60;;
78197;SDS011;67472;51.554;7.812;2023-10-31T02:55:03;4.90;;;3.60;;
78197;SDS011;67472;51.554;7.812;2023-10-31T02:57:49;4.20;;;3.80;;
78197;SDS011;67472;51.554;7.812;2023-10-31T03:00:36;5.70;;;3.72;;
78197;SDS011;67472;51.554;7.812;2023-10-31T03:03:22;4.53;;;3.28;;
78197;SDS011;67472;51.554;7.812;2023-10-31T03:06:09;4.90;;;3.40;;
78197;SDS011;67472;51.554;7.812;2023-10-31T03:08:55;4.35;;;3.60;;
78197;SDS011;67472;51.554;7.812;2023-10-31T03:11:43;5.25;;;3.40;;
78197;SDS011;67472;51.554;7.812;2023-10-31T03:14:29;3.63;;;3.33;;
78197;SDS011;67472;51.554;7.812;2023-10-31T03:17:16;4.45;;;2.75;;
78197;SDS011;67472;51.554;7.812;2023-10-31T03:20:03;4.32;;;3.13;;
78197;SDS011;67472;51.554;7.812;2023-10-31T03:22:50;4.40;;;2.92;;
78197;SDS011;67472;51.554;7.812;2023-10-31T03:25:37;3.13;;;2.83;;
78197;SDS011;67472;51.554;7.812;2023-10-31T03:28:25;4.13;;;2.97;;
78197;SDS011;67472;51.554;7.812;2023-10-31T03:31:12;4.30;;;3.03;;
78197;SDS011;67472;51.554;7.812;2023-10-31T03:33:58;3.40;;;2.55;;
78197;SDS011;67472;51.554;7.812;2023-10-31T03:36:45;5.35;;;3.10;;
78197;SDS011;67472;51.554;7.812;2023-10-31T03:39:31;3.00;;;2.70;;
78197;SDS011;67472;51.554;7.812;2023-10-31T03:42:17;2.60;;;2.40;;
78197;SDS011;67472;51.554;7.812;2023-10-31T03:45:05;2.90;;;2.60;;
78197;SDS011;67472;51.554;7.812;2023-10-31T03:47:53;3.03;;;2.22;;
78197;SDS011;67472;51.554;7.812;2023-10-31T03:50:39;3.17;;;2.88;;
78197;SDS011;67472;51.554;7.812;2023-10-31T03:53:25;2.88;;;2.67;;
78197;SDS011;67472;51.554;7.812;2023-10-31T03:56:11;4.30;;;3.33;;
78197;SDS011;67472;51.554;7.812;2023-10-31T03:58:58;4.00;;;3.15;;
78197;SDS011;67472;51.554;7.812;2023-10-31T04:01:46;4.70;;;3.67;;
78197;SDS011;67472;51.554;7.812;2023-10-31T04:04:32;5.75;;;3.67;;
78197;SDS011;67472;51.554;7.812;2023-10-31T04:07:18;5.32;;;4.05;;
78197;SDS011;67472;51.554;7.812;2023-10-31T04:10:04;8.13;;;4.47;;
78197;SDS011;67472;51.554;7.812;2023-10-31T04:12:52;6.00;;;4.45;;
78197;SDS011;67472;51.554;7.812;2023-10-31T04:15:38;6.55;;;4.82;;
78197;SDS011;67472;51.554;7.812;2023-10-31T04:18:26;8.60;;;4.97;;
78197;SDS011;67472;51.554;7.812;2023-10-31T04:21:12;9.18;;;5.63;;
78197;SDS011;67472;51.554;7.812;2023-10-31T04:23:58;7.75;;;5.45;;
78197;SDS011;67472;51.554;7.812;2023-10-31T04:26:45;7.70;;;5.05;;
78197;SDS011;67472;51.554;7.812;2023-10-31T04:29:31;13.05;;;5.28;;
78197;SDS011;67472;51.554;7.812;2023-10-31T04:32:18;7.20;;;4.47;;
78197;SDS011;67472;51.554;7.812;2023-10-31T04:35:05;7.50;;;5.25;;
78197;SDS011;67472;51.554;7.812;2023-10-31T04:37:52;7.32;;;5.32;;
78197;SDS011;67472;51.554;7.812;2023-10-31T04:40:38;6.50;;;4.60;;
78197;SDS011;67472;51.554;7.812;2023-10-31T04:43:24;6.50;;;4.55;;
78197;SDS011;67472;51.554;7.812;2023-10-31T04:46:11;6.53;;;4.18;;
78197;SDS011;67472;51.554;7.812;2023-10-31T04:48:58;5.90;;;4.07;;
78197;SDS011;67472;51.554;7.812;2023-10-31T04:51:45;7.00;;;4.45;;
78197;SDS011;67472;51.554;7.812;2023-10-31T04:54:32;7.13;;;4.50;;
78197;SDS011;67472;51.554;7.812;2023-10-31T04:57:19;6.05;;;4.07;;
78197;SDS011;67472;51.554;7.812;2023-10-31T05:00:05;7.20;;;4.22;;
78197;SDS011;67472;51.554;7.812;2023-10-31T05:02:53;6.70;;;4.22;;
78197;SDS011;67472;51.554;7.812;2023-10-31T05:05:41;6.15;;;3.95;;
78197;SDS011;67472;51.554;7.812;2023-10-31T05:08:29;4.35;;;3.88;;
78197;SDS011;67472;51.554;7.812;2023-10-31T05:11:16;5.18;;;4.32;;
78197;SDS011;67472;51.554;7.812;2023-10-31T05:14:02;4.72;;;3.97;;
78197;SDS011;67472;51.554;7.812;2023-10-31T05:16:49;5.32;;;4.68;;
78197;SDS011;67472;51.554;7.812;2023-10-31T05:19:44;4.97;;;4.28;;
78197;SDS011;67472;51.554;7.812;2023-10-31T05:23:42;6.13;;;5.10;;
78197;SDS011;67472;51.554;7.812;2023-10-31T05:27:24;5.75;;;5.05;;
78197;SDS011;67472;51.554;7.812;2023-10-31T05:30:24;9.13;;;5.35;;
78197;SDS011;67472;51.554;7.812;2023-10-31T05:33:11;7.63;;;6.20;;
78197;SDS011;67472;51.554;7.812;2023-10-31T05:35:57;9.30;;;6.00;;
78197;SDS011;67472;51.554;7.812;2023-10-31T05:38:45;11.20;;;7.05;;
78197;SDS011;67472;51.554;7.812;2023-10-31T05:41:33;10.68;;;7.15;;
78197;SDS011;67472;51.554;7.812;2023-10-31T05:44:20;11.60;;;7.20;;
78197;SDS011;67472;51.554;7.812;2023-10-31T05:47:07;9.00;;;6.50;;
78197;SDS011;67472;51.554;7.812;2023-10-31T05:49:53;8.10;;;5.75;;
78197;SDS011;67472;51.554;7.812;2023-10-31T05:52:39;6.53;;;5.38;;
78197;SDS011;67472;51.554;7.812;2023-10-31T05:55:27;9.23;;;4.93;;
78197;SDS011;67472;51.554;7.812;2023-10-31T05:58:13;6.78;;;4.78;;
78197;SDS011;67472;51.554;7.812;2023-10-31T06:01:00;9.18;;;5.32;;
78197;SDS011;67472;51.554;7.812;2023-10-31T06:03:46;6.43;;;4.78;;
78197;SDS011;67472;51.554;7.812;2023-10-31T06:06:33;4.55;;;4.13;;
78197;SDS011;67472;51.554;7.812;2023-10-31T06:09:23;6.05;;;4.15;;
78197;SDS011;67472;51.554;7.812;2023-10-31T06:12:11;5.30;;;3.60;;
78197;SDS011;67472;51.554;7.812;2023-10-31T06:14:57;6.13;;;4.63;;
78197;SDS011;67472;51.554;7.812;2023-10-31T06:17:43;9.25;;;5.47;;
78197;SDS011;67472;51.554;7.812;2023-10-31T06:20:29;5.65;;;4.72;;
78197;SDS011;67472;51.554;7.812;2023-10-31T06:23:16;7.07;;;5.22;;
78197;SDS011;67472;51.554;7.812;2023-10-31T06:26:03;6.18;;;5.00;;
78197;SDS011;67472;51.554;7.812;2023-10-31T06:28:51;5.97;;;4.63;;
78197;SDS011;67472;51.554;7.812;2023-10-31T06:31:37;8.32;;;5.30;;
78197;SDS011;67472;51.554;7.812;2023-10-31T06:34:24;5.53;;;4.78;;
78197;SDS011;67472;51.554;7.812;2023-10-31T06:37:10;9.65;;;5.68;;
78197;SDS011;67472;51.554;7.812;2023-10-31T06:39:56;11.40;;;5.40;;
78197;SDS011;67472;51.554;7.812;2023-10-31T06:42:42;8.02;;;6.38;;
78197;SDS011;67472;51.554;7.812;2023-10-31T06:45:30;10.30;;;6.05;;
78197;SDS011;67472;51.554;7.812;2023-10-31T06:48:17;8.13;;;6.30;;
78197;SDS011;67472;51.554;7.812;2023-10-31T06:51:03;8.88;;;6.82;;
78197;SDS011;67472;51.554;7.812;2023-10-31T06:53:50;8.85;;;7.00;;
78197;SDS011;67472;51.554;7.812;2023-10-31T06:56:36;9.82;;;7.65;;
78197;SDS011;67472;51.554;7.812;2023-10-31T06:59:22;9.93;;;7.32;;
78197;SDS011;67472;51.554;7.812;2023-10-31T07:02:10;11.45;;;8.30;;
78197;SDS011;67472;51.554;7.812;2023-10-31T07:04:57;13.70;;;8.35;;
78197;SDS011;67472;51.554;7.812;2023-10-31T07:07:43;12.60;;;7.90;;
78197;SDS011;67472;51.554;7.812;2023-10-31T07:10:29;12.40;;;8.95;;
78197;SDS011;67472;51.554;7.812;2023-10-31T07:13:15;15.10;;;9.95;;
78197;SDS011;67472;51.554;7.812;2023-10-31T07:16:02;15.25;;;10.57;;
78197;SDS011;67472;51.554;7.812;2023-10-31T07:18:50;13.20;;;10.15;;
78197;SDS011;67472;51.554;7.812;2023-10-31T07:21:37;14.30;;;10.35;;
78197;SDS011;67472;51.554;7.812;2023-10-31T07:24:23;15.23;;;11.18;;
78197;SDS011;67472;51.554;7.812;2023-10-31T07:27:11;15.90;;;11.02;;
78197;SDS011;67472;51.554;7.812;2023-10-31T07:29:57;18.30;;;11.25;;
78197;SDS011;67472;51.554;7.812;2023-10-31T07:32:44;15.98;;;11.50;;
78197;SDS011;67472;51.554;7.812;2023-10-31T07:35:31;16.95;;;11.13;;
78197;SDS011;67472;51.554;7.812;2023-10-31T07:38:18;18.27;;;11.18;;
78197;SDS011;67472;51.554;7.812;2023-10-31T07:41:04;15.48;;;11.68;;
78197;SDS011;67472;51.554;7.812;2023-10-31T07:43:50;17.63;;;12.15;;
78197;SDS011;67472;51.554;7.812;2023-10-31T07:46:37;16.42;;;12.50;;
78197;SDS011;67472;51.554;7.812;2023-10-31T07:49:23;15.73;;;11.88;;
78197;SDS011;67472;51.554;7.812;2023-10-31T07:52:11;15.48;;;12.32;;
78197;SDS011;67472;51.554;7.812;2023-10-31T07:54:57;17.17;;;12.63;;
78197;SDS011;67472;51.554;7.812;2023-10-31T07:57:43;19.00;;;12.68;;
78197;SDS011;67472;51.554;7.812;2023-10-31T08:00:30;16.77;;;12.60;;
78197;SDS011;67472;51.554;7.812;2023-10-31T08:03:17;15.05;;;11.68;;
78197;SDS011;67472;51.554;7.812;2023-10-31T08:06:04;18.65;;;12.05;;
78197;SDS011;67472;51.554;7.812;2023-10-31T08:08:53;15.60;;;11.77;;
78197;SDS011;67472;51.554;7.812;2023-10-31T08:11:39;18.27;;;12.90;;
78197;SDS011;67472;51.554;7.812;2023-10-31T08:14:26;16.58;;;12.77;;
78197;SDS011;67472;51.554;7.812;2023-10-31T08:17:12;11.73;;;9.88;;
78197;SDS011;67472;51.554;7.812;2023-10-31T08:19:58;13.07;;;10.20;;
78197;SDS011;67472;51.554;7.812;2023-10-31T08:22:48;11.02;;;9.30;;
78197;SDS011;67472;51.554;7.812;2023-10-31T08:25:35;13.10;;;10.40;;
78197;SDS011;67472;51.554;7.812;2023-10-31T08:28:23;11.43;;;8.25;;
78197;SDS011;67472;51.554;7.812;2023-10-31T08:31:09;8.85;;;7.82;;
78197;SDS011;67472;51.554;7.812;2023-10-31T08:33:55;11.05;;;7.78;;
78197;SDS011;67472;51.554;7.812;2023-10-31T08:36:42;10.23;;;7.03;;
78197;SDS011;67472;51.554;7.812;2023-10-31T08:39:28;8.98;;;7.53;;
78197;SDS011;67472;51.554;7.812;2023-10-31T08:42:16;8.55;;;7.00;;
78197;SDS011;67472;51.554;7.812;2023-10-31T08:45:03;8.38;;;6.95;;
78197;SDS011;67472;51.554;7.812;2023-10-31T08:47:50;8.65;;;6.25;;
78197;SDS011;67472;51.554;7.812;2023-10-31T08:50:36;9.50;;;7.55;;
78197;SDS011;67472;51.554;7.812;2023-10-31T08:53:23;6.85;;;5.90;;
78197;SDS011;67472;51.554;7.812;2023-10-31T08:56:09;8.93;;;6.65;;
78197;SDS011;67472;51.554;7.812;2023-10-31T08:58:57;9.70;;;6.68;;
78197;SDS011;67472;51.554;7.812;2023-10-31T09:01:44;7.38;;;6.18;;
78197;SDS011;67472;51.554;7.812;2023-10-31T09:04:30;9.32;;;5.93;;
78197;SDS011;67472;51.554;7.812;2023-10-31T09:07:16;7.65;;;5.97;;
78197;SDS011;67472;51.554;7.812;2023-10-31T09:10:02;9.07;;;6.97;;
78197;SDS011;67472;51.554;7.812;2023-10-31T09:12:50;8.35;;;6.95;;
78197;SDS011;67472;51.554;7.812;2023-10-31T09:15:38;8.75;;;7.18;;
78197;SDS011;67472;51.554;7.812;2023-10-31T09:18:24;7.80;;;7.10;;
78197;SDS011;67472;51.554;7.812;2023-10-31T09:21:11;10.63;;;7.07;;
78197;SDS011;67472;51.554;7.812;2023-10-31T09:23:56;9.98;;;6.88;;
78197;SDS011;67472;51.554;7.812;2023-10-31T09:26:42;7.13;;;6.35;;
78197;SDS011;67472;51.554;7.812;2023-10-31T09:29:29;9.57;;;6.60;;
78197;SDS011;67472;51.554;7.812;2023-10-31T09:32:18;7.03;;;6.30;;
78197;SDS011;67472;51.554;7.812;2023-10-31T09:35:04;7.85;;;5.90;;
78197;SDS011;67472;51.554;7.812;2023-10-31T09:37:53;7.90;;;6.57;;
78197;SDS011;67472;51.554;7.812;2023-10-31T09:40:39;7.35;;;5.90;;
78197;SDS011;67472;51.554;7.812;2023-10-31T09:43:25;7.07;;;6.32;;
78197;SDS011;67472;51.554;7.812;2023-10-31T09:46:11;10.68;;;5.68;;
78197;SDS011;67472;51.554;7.812;2023-10-31T09:48:59;5.55;;;4.85;;
78197;SDS011;67472;51.554;7.812;2023-10-31T09:51:46;5.68;;;5.05;;
78197;SDS011;67472;51.554;7.812;2023-10-31T09:54:33;7.80;;;5.57;;
78197;SDS011;67472;51.554;7.812;2023-10-31T09:57:19;5.40;;;4.80;;
78197;SDS011;67472;51.554;7.812;2023-10-31T10:00:06;7.53;;;5.32;;
78197;SDS011;67472;51.554;7.812;2023-10-31T10:02:55;5.32;;;4.78;;
78197;SDS011;67472;51.554;7.812;2023-10-31T10:05:42;6.25;;;5.10;;
78197;SDS011;67472;51.554;7.812;2023-10-31T10:08:30;6.13;;;5.53;;
78197;SDS011;67472;51.554;7.812;2023-10-31T10:11:16;7.53;;;5.15;;
78197;SDS011;67472;51.554;7.812;2023-10-31T10:14:03;5.28;;;4.78;;
78197;SDS011;67472;51.554;7.812;2023-10-31T10:16:54;6.30;;;4.78;;
78197;SDS011;67472;51.554;7.812;2023-10-31T10:19:40;5.85;;;4.75;;
78197;SDS011;67472;51.554;7.812;2023-10-31T10:22:28;8.05;;;4.30;;
78197;SDS011;67472;51.554;7.812;2023-10-31T10:25:15;5.72;;;4.68;;
78197;SDS011;67472;51.554;7.812;2023-10-31T10:28:03;9.13;;;5.15;;
78197;SDS011;67472;51.554;7.812;2023-10-31T10:30:50;5.65;;;4.00;;
78197;SDS011;67472;51.554;7.812;2023-10-31T10:33:40;5.80;;;4.43;;
78197;SDS011;67472;51.554;7.812;2023-10-31T10:36:26;5.70;;;4.63;;
78197;SDS011;67472;51.554;7.812;2023-10-31T10:39:14;5.50;;;4.00;;
78197;SDS011;67472;51.554;7.812;2023-10-31T10:42:05;4.50;;;4.10;;
78197;SDS011;67472;51.554;7.812;2023-10-31T10:44:56;4.63;;;3.47;;
78197;SDS011;67472;51.554;7.812;2023-10-31T10:47:48;5.13;;;4.53;;
78197;SDS011;67472;51.554;7.812;2023-10-31T10:50:36;5.50;;;5.00;;
78197;SDS011;67472;51.554;7.812;2023-10-31T10:53:29;11.00;;;4.68;;
78197;SDS011;67472;51.554;7.812;2023-10-31T10:56:25;8.63;;;4.88;;
78197;SDS011;67472;51.554;7.812;2023-10-31T10:59:14;5.43;;;4.28;;
78197;SDS011;67472;51.554;7.812;2023-10-31T11:02:05;6.50;;;4.45;;
78197;SDS011;67472;51.554;7.812;2023-10-31T11:04:55;4.82;;;4.25;;
78197;SDS011;67472;51.554;7.812;2023-10-31T11:07:43;4.63;;;4.20;;
78197;SDS011;67472;51.554;7.812;2023-10-31T11:10:31;7.00;;;4.13;;
78197;SDS011;67472;51.554;7.812;2023-10-31T11:13:19;5.15;;;3.50;;
78197;SDS011;67472;51.554;7.812;2023-10-31T11:16:11;5.68;;;4.28;;
78197;SDS011;67472;51.554;7.812;2023-10-31T11:19:01;8.52;;;4.07;;
78197;SDS011;67472;51.554;7.812;2023-10-31T11:21:55;7.53;;;4.57;;
78197;SDS011;67472;51.554;7.812;2023-10-31T11:24:43;7.32;;;4.10;;
78197;SDS011;67472;51.554;7.812;2023-10-31T11:27:30;4.45;;;3.40;;
78197;SDS011;67472;51.554;7.812;2023-10-31T11:30:22;9.95;;;4.05;;
78197;SDS011;67472;51.554;7.812;2023-10-31T11:33:16;5.30;;;3.45;;
78197;SDS011;67472;51.554;7.812;2023-10-31T11:36:06;6.38;;;3.83;;
78197;SDS011;67472;51.554;7.812;2023-10-31T11:38:54;8.93;;;4.57;;
78197;SDS011;67472;51.554;7.812;2023-10-31T11:41:55;10.48;;;4.07;;
78197;SDS011;67472;51.554;7.812;2023-10-31T11:44:54;7.35;;;3.78;;
78197;SDS011;67472;51.554;7.812;2023-10-31T11:47:48;6.32;;;4.03;;
78197;SDS011;67472;51.554;7.812;2023-10-31T11:50:35;7.72;;;4.63;;
78197;SDS011;67472;51.554;7.812;2023-10-31T11:53:22;6.88;;;4.47;;
78197;SDS011;67472;51.554;7.812;2023-10-31T11:56:09;6.50;;;4.05;;
78197;SDS011;67472;51.554;7.812;2023-10-31T11:58:57;13.90;;;4.78;;
78197;SDS011;67472;51.554;7.812;2023-10-31T12:01:44;10.43;;;4.70;;
78197;SDS011;67472;51.554;7.812;2023-10-31T12:04:33;7.75;;;4.38;;
78197;SDS011;67472;51.554;7.812;2023-10-31T12:07:19;8.85;;;4.60;;
78197;SDS011;67472;51.554;7.812;2023-10-31T12:10:06;7.50;;;4.53;;
78197;SDS011;67472;51.554;7.812;2023-10-31T12:12:53;11.15;;;4.03;;
78197;SDS011;67472;51.554;7.812;2023-10-31T12:15:50;8.95;;;4.25;;
78197;SDS011;67472;51.554;7.812;2023-10-31T12:18:38;7.03;;;4.20;;
78197;SDS011;67472;51.554;7.812;2023-10-31T12:21:39;7.65;;;3.97;;
78197;SDS011;67472;51.554;7.812;2023-10-31T12:24:27;5.85;;;3.63;;
78197;SDS011;67472;51.554;7.812;2023-10-31T12:27:13;9.15;;;4.38;;
78197;SDS011;67472;51.554;7.812;2023-10-31T12:30:00;8.75;;;3.88;;
78197;SDS011;67472;51.554;7.812;2023-10-31T12:32:52;8.32;;;3.55;;
78197;SDS011;67472;51.554;7.812;2023-10-31T12:35:40;5.50;;;3.17;;
78197;SDS011;67472;51.554;7.812;2023-10-31T12:38:28;4.55;;;3.28;;
78197;SDS011;67472;51.554;7.812;2023-10-31T12:41:15;6.22;;;3.60;;
78197;SDS011;67472;51.554;7.812;2023-10-31T12:44:02;6.00;;;3.72;;
78197;SDS011;67472;51.554;7.812;2023-10-31T12:46:50;8.52;;;3.60;;
78197;SDS011;67472;51.554;7.812;2023-10-31T12:49:36;7.70;;;3.22;;
78197;SDS011;67472;51.554;7.812;2023-10-31T12:52:23;7.25;;;3.13;;
78197;SDS011;67472;51.554;7.812;2023-10-31T12:55:13;5.85;;;2.83;;
78197;SDS011;67472;51.554;7.812;2023-10-31T12:58:00;7.40;;;2.70;;
78197;SDS011;67472;51.554;7.812;2023-10-31T13:00:47;7.70;;;3.15;;
78197;SDS011;67472;51.554;7.812;2023-10-31T13:03:33;5.85;;;2.80;;
78197;SDS011;67472;51.554;7.812;2023-10-31T13:06:34;9.00;;;3.00;;
78197;SDS011;67472;51.554;7.812;2023-10-31T13:09:20;9.60;;;2.53;;
78197;SDS011;67472;51.554;7.812;2023-10-31T13:12:09;6.57;;;2.72;;
78197;SDS011;67472;51.554;7.812;2023-10-31T13:14:56;5.72;;;3.05;;
78197;SDS011;67472;51.554;7.812;2023-10-31T13:17:42;6.90;;;2.65;;
78197;SDS011;67472;51.554;7.812;2023-10-31T13:20:29;8.00;;;2.30;;
78197;SDS011;67472;51.554;7.812;2023-10-31T13:23:16;5.95;;;3.15;;
78197;SDS011;67472;51.554;7.812;2023-10-31T13:26:03;7.57;;;2.53;;
78197;SDS011;67472;51.554;7.812;2023-10-31T13:28:51;3.83;;;2.67;;
78197;SDS011;67472;51.554;7.812;2023-10-31T13:31:37;5.20;;;2.70;;
78197;SDS011;67472;51.554;7.812;2023-10-31T13:34:23;4.43;;;2.20;;
78197;SDS011;67472;51.554;7.812;2023-10-31T13:37:09;7.47;;;2.53;;
78197;SDS011;67472;51.554;7.812;2023-10-31T13:39:55;3.83;;;1.88;;
78197;SDS011;67472;51.554;7.812;2023-10-31T13:42:41;5.80;;;1.83;;
78197;SDS011;67472;51.554;7.812;2023-10-31T13:45:29;4.90;;;1.40;;
78197;SDS011;67472;51.554;7.812;2023-10-31T13:48:15;8.50;;;2.33;;
78197;SDS011;67472;51.554;7.812;2023-10-31T13:51:03;2.42;;;1.20;;
78197;SDS011;67472;51.554;7.812;2023-10-31T13:53:50;3.20;;;1.60;;
78197;SDS011;67472;51.554;7.812;2023-10-31T13:56:36;5.90;;;1.88;;
78197;SDS011;67472;51.554;7.812;2023-10-31T13:59:22;3.63;;;1.83;;
78197;SDS011;67472;51.554;7.812;2023-10-31T14:02:10;3.55;;;1.60;;
78197;SDS011;67472;51.554;7.812;2023-10-31T14:04:57;5.55;;;2.30;;
78197;SDS011;67472;51.554;7.812;2023-10-31T14:07:43;3.95;;;1.50;;
78197;SDS011;67472;51.554;7.812;2023-10-31T14:10:29;6.50;;;1.67;;
78197;SDS011;67472;51.554;7.812;2023-10-31T14:13:16;1.85;;;1.17;;
78197;SDS011;67472;51.554;7.812;2023-10-31T14:16:05;3.75;;;1.90;;
78197;SDS011;67472;51.554;7.812;2023-10-31T14:18:53;8.90;;;1.98;;
78197;SDS011;67472;51.554;7.812;2023-10-31T14:21:40;8.00;;;2.33;;
78197;SDS011;67472;51.554;7.812;2023-10-31T14:24:26;5.20;;;1.95;;
78197;SDS011;67472;51.554;7.812;2023-10-31T14:27:12;1.98;;;1.48;;
78197;SDS011;67472;51.554;7.812;2023-10-31T14:29:59;5.43;;;1.55;;
78197;SDS011;67472;51.554;7.812;2023-10-31T14:32:46;6.07;;;1.42;;
78197;SDS011;67472;51.554;7.812;2023-10-31T14:35:34;2.30;;;1.60;;
78197;SDS011;67472;51.554;7.812;2023-10-31T14:38:20;4.93;;;1.70;;
78197;SDS011;67472;51.554;7.812;2023-10-31T14:41:07;5.68;;;1.58;;
78197;SDS011;67472;51.554;7.812;2023-10-31T14:43:54;2.72;;;1.20;;
78197;SDS011;67472;51.554;7.812;2023-10-31T14:46:40;5.05;;;1.65;;
78197;SDS011;67472;51.554;7.812;2023-10-31T14:49:27;1.63;;;1.52;;
78197;SDS011;67472;51.554;7.812;2023-10-31T14:52:14;2.05;;;1.38;;
78197;SDS011;67472;51.554;7.812;2023-10-31T14:55:02;4.60;;;1.50;;
78197;SDS011;67472;51.554;7.812;2023-10-31T14:57:48;3.35;;;1.33;;
78197;SDS011;67472;51.554;7.812;2023-10-31T15:00:35;4.03;;;1.40;;
78197;SDS011;67472;51.554;7.812;2023-10-31T15:03:21;5.65;;;1.27;;
78197;SDS011;67472;51.554;7.812;2023-10-31T15:06:07;2.55;;;1.38;;
78197;SDS011;67472;51.554;7.812;2023-10-31T15:08:55;4.20;;;1.40;;
78197;SDS011;67472;51.554;7.812;2023-10-31T15:11:41;2.05;;;1.33;;
78197;SDS011;67472;51.554;7.812;2023-10-31T15:14:27;3.28;;;1.55;;
78197;SDS011;67472;51.554;7.812;2023-10-31T15:17:13;3.13;;;1.50;;
78197;SDS011;67472;51.554;7.812;2023-10-31T15:20:00;1.40;;;1.30;;
78197;SDS011;67472;51.554;7.812;2023-10-31T15:22:46;5.25;;;1.73;;
78197;SDS011;67472;51.554;7.812;2023-10-31T15:25:35;3.40;;;1.90;;
78197;SDS011;67472;51.554;7.812;2023-10-31T15:28:21;4.18;;;2.28;;
78197;SDS011;67472;51.554;7.812;2023-10-31T15:31:09;2.80;;;2.10;;
78197;SDS011;67472;51.554;7.812;2023-10-31T15:33:56;3.58;;;2.22;;
78197;SDS011;67472;51.554;7.812;2023-10-31T15:36:42;3.35;;;2.00;;
78197;SDS011;67472;51.554;7.812;2023-10-31T15:39:28;3.53;;;1.92;;
78197;SDS011;67472;51.554;7.812;2023-10-31T15:42:16;4.43;;;1.75;;
78197;SDS011;67472;51.554;7.812;2023-10-31T15:45:03;4.22;;;1.95;;
78197;SDS011;67472;51.554;7.812;2023-10-31T15:47:50;5.20;;;1.98;;
78197;SDS011;67472;51.554;7.812;2023-10-31T15:50:38;8.55;;;2.00;;
78197;SDS011;67472;51.554;7.812;2023-10-31T15:53:25;2.53;;;1.92;;
78197;SDS011;67472;51.554;7.812;2023-10-31T15:56:13;3.17;;;1.98;;
78197;SDS011;67472;51.554;7.812;2023-10-31T15:59:01;5.13;;;1.95;;
78197;SDS011;67472;51.554;7.812;2023-10-31T16:01:47;5.72;;;2.22;;
78197;SDS011;67472;51.554;7.812;2023-10-31T16:04:34;3.95;;;2.10;;
78197;SDS011;67472;51.554;7.812;2023-10-31T16:07:20;5.10;;;2.33;;
78197;SDS011;67472;51.554;7.812;2023-10-31T16:10:07;4.68;;;2.83;;
78197;SDS011;67472;51.554;7.812;2023-10-31T16:12:53;3.58;;;2.17;;
78197;SDS011;67472;51.554;7.812;2023-10-31T16:15:41;2.55;;;1.98;;
78197;SDS011;67472;51.554;7.812;2023-10-31T16:18:28;3.13;;;2.25;;
78197;SDS011;67472;51.554;7.812;2023-10-31T16:21:15;8.95;;;3.25;;
78197;SDS011;67472;51.554;7.812;2023-10-31T16:24:02;4.18;;;2.53;;
78197;SDS011;67472;51.554;7.812;2023-10-31T16:26:49;2.60;;;2.30;;
78197;SDS011;67472;51.554;7.812;2023-10-31T16:29:36;2.90;;;1.92;;
78197;SDS011;67472;51.554;7.812;2023-10-31T16:32:24;3.20;;;1.90;;
78197;SDS011;67472;51.554;7.812;2023-10-31T16:35:10;4.15;;;2.00;;
78197;SDS011;67472;51.554;7.812;2023-10-31T16:37:57;4.97;;;2.80;;
78197;SDS011;67472;51.554;7.812;2023-10-31T16:40:43;3.95;;;3.05;;
78197;SDS011;67472;51.554;7.812;2023-10-31T16:43:30;11.38;;;5.10;;
78197;SDS011;67472;51.554;7.812;2023-10-31T16:46:17;6.20;;;2.78;;
78197;SDS011;67472;51.554;7.812;2023-10-31T16:49:05;4.70;;;2.85;;